createdAt,value
2019-03-21T00:01:59.825Z,9.23
2019-03-21T00:04:26.261Z,8.33
2019-03-21T00:06:52.463Z,6.40
2019-03-21T00:09:18.703Z,4.15
2019-03-21T00:12:06.188Z,10.10
2019-03-21T00:14:54.259Z,8.28
2019-03-21T00:17:30.065Z,5.40
2019-03-21T00:19:56.207Z,7.22
2019-03-21T00:22:22.413Z,8.00
2019-03-21T00:24:48.526Z,5.25
2019-03-21T00:27:14.753Z,9.98
2019-03-21T00:29:40.961Z,8.30
2019-03-21T00:32:08.383Z,3.58
2019-03-21T00:34:34.567Z,6.05
2019-03-21T00:37:00.737Z,8.03
2019-03-21T00:39:32.720Z,4.22
2019-03-21T00:41:55.993Z,6.25
2019-03-21T00:44:22.189Z,5.65
2019-03-21T00:46:48.402Z,5.28
2019-03-21T00:49:14.803Z,6.50
2019-03-21T00:51:41.050Z,7.20
2019-03-21T00:54:07.170Z,10.88
2019-03-21T00:56:33.508Z,6.10
2019-03-21T00:58:59.621Z,5.90
2019-03-21T01:01:26.043Z,7.25
2019-03-21T01:03:53.259Z,4.92
2019-03-21T01:06:19.446Z,5.58
2019-03-21T01:08:45.600Z,5.30
2019-03-21T01:11:11.871Z,4.97
2019-03-21T01:13:39.280Z,5.20
2019-03-21T01:16:05.657Z,7.03
2019-03-21T01:18:34.398Z,5.58
2019-03-21T01:21:00.741Z,6.35
2019-03-21T01:23:27.940Z,4.97
2019-03-21T01:26:00.662Z,4.50
2019-03-21T01:28:26.853Z,7.40
2019-03-21T01:30:53.079Z,6.72
2019-03-21T01:33:19.187Z,4.47
2019-03-21T01:35:45.435Z,5.83
2019-03-21T01:38:11.736Z,6.15
2019-03-21T01:40:57.919Z,7.20
2019-03-21T01:43:24.095Z,5.80
2019-03-21T01:45:50.266Z,6.50
2019-03-21T01:48:16.489Z,6.62
2019-03-21T01:50:42.603Z,6.50
2019-03-21T01:53:08.802Z,4.83
2019-03-21T01:55:35.060Z,6.05
2019-03-21T01:58:01.275Z,6.50
2019-03-21T02:00:30.880Z,4.75
2019-03-21T02:02:57.477Z,6.75
2019-03-21T02:05:23.706Z,6.67
2019-03-21T02:07:49.975Z,5.75
2019-03-21T02:10:17.034Z,5.70
2019-03-21T02:12:43.228Z,5.45
2019-03-21T02:15:13.611Z,5.85
2019-03-21T02:17:39.915Z,6.03
2019-03-21T02:20:10.937Z,5.72
2019-03-21T02:22:37.050Z,7.58
2019-03-21T02:25:07.197Z,6.00
2019-03-21T02:27:33.335Z,3.17
2019-03-21T02:29:59.553Z,6.75
2019-03-21T02:32:26.001Z,6.03
2019-03-21T02:34:52.222Z,4.80
2019-03-21T02:37:18.481Z,9.03
2019-03-21T02:39:58.150Z,4.20
2019-03-21T02:42:12.870Z,6.05
2019-03-21T02:44:39.141Z,6.83
2019-03-21T02:47:05.413Z,7.03
2019-03-21T02:49:31.594Z,3.37
2019-03-21T02:51:57.798Z,6.92
2019-03-21T02:54:25.029Z,6.58
2019-03-21T02:56:51.845Z,7.25
2019-03-21T02:59:18.009Z,5.00
2019-03-21T03:01:44.264Z,7.33
2019-03-21T03:04:10.532Z,8.50
2019-03-21T03:06:36.897Z,4.58
2019-03-21T03:09:05.721Z,8.38
2019-03-21T03:11:32.033Z,6.58
2019-03-21T03:13:58.243Z,8.60
2019-03-21T03:16:24.432Z,8.25
2019-03-21T03:18:50.660Z,6.17
2019-03-21T03:21:16.877Z,7.50
2019-03-21T03:23:42.992Z,12.20
2019-03-21T03:26:09.247Z,7.95
2019-03-21T03:28:44.427Z,6.67
2019-03-21T03:31:10.657Z,8.35
2019-03-21T03:33:36.756Z,7.90
2019-03-21T03:36:03.164Z,8.30
2019-03-21T03:38:29.283Z,8.10
2019-03-21T03:40:59.319Z,9.10
2019-03-21T03:43:25.661Z,9.00
2019-03-21T03:45:51.906Z,9.13
2019-03-21T03:48:19.976Z,8.40
2019-03-21T03:50:46.356Z,9.23
2019-03-21T03:53:12.621Z,7.03
2019-03-21T03:55:39.032Z,6.95
2019-03-21T03:58:09.174Z,8.58
2019-03-21T04:00:35.833Z,7.17
2019-03-21T04:03:02.137Z,13.58
2019-03-21T04:05:28.829Z,10.78
2019-03-21T04:07:55.506Z,10.18
2019-03-21T04:10:25.784Z,10.53
2019-03-21T04:12:52.538Z,6.45
2019-03-21T04:15:19.524Z,13.28
2019-03-21T04:17:46.190Z,10.78
2019-03-21T04:20:15.795Z,9.78
2019-03-21T04:22:42.716Z,9.48
2019-03-21T04:25:12.607Z,10.23
2019-03-21T04:27:39.559Z,10.32
2019-03-21T04:30:09.910Z,11.93
2019-03-21T04:32:36.733Z,10.38
2019-03-21T04:35:09.431Z,13.95
2019-03-21T04:37:36.082Z,8.60
2019-03-21T04:40:06.302Z,9.75
2019-03-21T04:42:33.174Z,9.88
2019-03-21T04:44:59.969Z,12.15
2019-03-21T04:47:26.849Z,11.85
2019-03-21T04:49:53.653Z,11.10
2019-03-21T04:52:20.434Z,14.63
2019-03-21T04:54:47.159Z,14.43
2019-03-21T04:57:13.944Z,13.13
2019-03-21T04:59:40.698Z,12.00
2019-03-21T05:02:07.486Z,10.10
2019-03-21T05:04:34.235Z,12.60
2019-03-21T05:07:01.127Z,11.20
2019-03-21T05:09:27.802Z,11.88
2019-03-21T05:11:54.631Z,9.38
2019-03-21T05:14:21.320Z,12.28
2019-03-21T05:16:48.078Z,12.40
2019-03-21T05:19:14.865Z,10.98
2019-03-21T05:21:41.929Z,17.45
2019-03-21T05:24:09.576Z,13.65
2019-03-21T05:26:36.609Z,13.15
2019-03-21T05:29:02.896Z,11.75
2019-03-21T05:31:32.726Z,14.40
2019-03-21T05:33:58.843Z,13.95
2019-03-21T05:36:25.071Z,13.20
2019-03-21T05:38:51.219Z,16.37
2019-03-21T05:41:17.553Z,13.13
2019-03-21T05:43:53.489Z,12.90
2019-03-21T05:46:26.427Z,16.42
2019-03-21T05:48:48.760Z,13.68
2019-03-21T05:51:14.990Z,14.90
2019-03-21T05:53:41.092Z,13.30
2019-03-21T05:56:07.313Z,17.02
2019-03-21T05:58:33.468Z,12.18
2019-03-21T06:01:03.000Z,13.95
2019-03-21T06:03:32.712Z,13.43
2019-03-21T06:06:11.057Z,17.12
2019-03-21T06:08:38.823Z,15.13
2019-03-21T06:11:05.437Z,29.77
2019-03-21T06:13:31.805Z,21.95
2019-03-21T06:16:09.454Z,15.38
2019-03-21T06:19:06.832Z,23.57
2019-03-21T06:21:36.795Z,14.25
2019-03-21T06:24:30.849Z,17.65
2019-03-21T06:27:14.759Z,12.58
2019-03-21T06:29:41.138Z,18.23
2019-03-21T06:32:07.517Z,17.67
2019-03-21T06:34:33.644Z,17.40
2019-03-21T06:36:59.900Z,13.38
2019-03-21T06:39:26.208Z,11.20
2019-03-21T06:41:52.419Z,17.50
2019-03-21T06:44:18.575Z,12.75
2019-03-21T06:46:49.282Z,13.22
2019-03-21T06:49:12.831Z,15.78
2019-03-21T06:51:39.064Z,16.30
2019-03-21T06:54:05.164Z,15.18
2019-03-21T06:56:31.387Z,12.90
2019-03-21T06:58:57.554Z,10.55
2019-03-21T07:01:23.787Z,13.70
2019-03-21T07:03:49.911Z,15.13
2019-03-21T07:06:16.141Z,10.43
2019-03-21T07:08:42.270Z,12.20
2019-03-21T07:11:08.625Z,9.90
2019-03-21T07:13:34.805Z,18.05
2019-03-21T07:16:01.184Z,12.10
2019-03-21T07:18:27.463Z,20.55
2019-03-21T07:20:53.833Z,15.32
2019-03-21T07:23:20.251Z,14.25
2019-03-21T07:25:46.455Z,17.42
2019-03-21T07:28:12.611Z,13.75
2019-03-21T07:30:38.777Z,11.60
2019-03-21T07:33:04.943Z,11.65
2019-03-21T07:35:31.194Z,10.75
2019-03-21T07:37:57.354Z,10.13
2019-03-21T07:40:23.535Z,13.03
2019-03-21T07:42:49.704Z,13.05
2019-03-21T07:45:15.888Z,15.13
2019-03-21T07:47:42.258Z,19.67
2019-03-21T07:50:12.781Z,18.75
2019-03-21T07:52:39.000Z,12.47
2019-03-21T07:55:07.558Z,18.40
2019-03-21T07:57:33.768Z,19.27
2019-03-21T07:59:59.997Z,21.23
2019-03-21T08:02:26.340Z,18.00
2019-03-21T08:04:52.573Z,18.48
2019-03-21T08:07:18.677Z,19.25
2019-03-21T08:09:44.906Z,18.10
2019-03-21T08:12:11.011Z,18.05
2019-03-21T08:14:37.236Z,18.00
2019-03-21T08:17:03.349Z,18.15
2019-03-21T08:19:29.569Z,18.55
2019-03-21T08:21:55.854Z,19.48
2019-03-21T08:24:22.237Z,16.40
2019-03-21T08:26:48.532Z,18.55
2019-03-21T08:29:14.833Z,15.70
2019-03-21T08:31:40.956Z,17.15
2019-03-21T08:34:07.188Z,18.23
2019-03-21T08:36:33.322Z,17.77
2019-03-21T08:39:00.635Z,16.42
2019-03-21T08:41:26.806Z,13.75
2019-03-21T08:43:53.054Z,15.13
2019-03-21T08:46:19.310Z,16.00
2019-03-21T08:48:45.537Z,16.65
2019-03-21T08:51:11.698Z,13.58
2019-03-21T08:53:37.984Z,15.65
2019-03-21T08:56:04.366Z,15.28
2019-03-21T08:58:30.652Z,19.25
2019-03-21T09:00:56.907Z,18.95
2019-03-21T09:03:23.218Z,17.67
2019-03-21T09:05:49.505Z,16.95
2019-03-21T09:08:15.789Z,15.98
2019-03-21T09:10:42.176Z,18.65
2019-03-21T09:13:09.465Z,16.80
2019-03-21T09:15:36.738Z,22.40
2019-03-21T09:18:02.935Z,18.82
2019-03-21T09:20:29.096Z,17.30
2019-03-21T09:22:55.321Z,17.20
2019-03-21T09:25:21.424Z,13.00
2019-03-21T09:27:47.631Z,20.50
2019-03-21T09:30:14.011Z,15.40
2019-03-21T09:32:40.648Z,17.80
2019-03-21T09:35:08.071Z,15.83
2019-03-21T09:37:34.230Z,16.12
2019-03-21T09:40:00.503Z,16.77
2019-03-21T09:42:26.835Z,17.32
2019-03-21T09:44:53.064Z,15.68
2019-03-21T09:47:19.166Z,13.88
2019-03-21T09:49:45.426Z,13.68
2019-03-21T09:52:11.532Z,18.05
2019-03-21T09:54:37.757Z,14.13
2019-03-21T09:57:04.005Z,14.45
2019-03-21T09:59:30.369Z,12.03
2019-03-21T10:01:56.487Z,12.85
2019-03-21T10:04:22.787Z,10.88
2019-03-21T10:06:49.032Z,13.62
2019-03-21T10:09:15.273Z,6.40
2019-03-21T10:11:41.538Z,7.90
2019-03-21T10:14:07.836Z,6.67
2019-03-21T10:16:34.249Z,5.75
2019-03-21T10:19:00.359Z,11.33
2019-03-21T10:21:26.887Z,11.35
2019-03-21T10:23:53.104Z,10.05
2019-03-21T10:26:19.537Z,9.15
2019-03-21T10:28:45.663Z,8.23
2019-03-21T10:31:11.874Z,9.48
2019-03-21T10:33:38.050Z,9.48
2019-03-21T10:36:04.283Z,8.83
2019-03-21T10:38:30.488Z,8.38
2019-03-21T10:40:56.897Z,8.80
2019-03-21T10:43:23.135Z,15.48
2019-03-21T10:45:49.368Z,9.35
2019-03-21T10:48:15.568Z,8.43
2019-03-21T10:50:41.661Z,11.33
2019-03-21T10:53:08.573Z,7.62
2019-03-21T10:55:35.015Z,11.18
2019-03-21T10:58:01.454Z,9.83
2019-03-21T11:00:27.697Z,9.30
2019-03-21T11:02:55.104Z,12.28
2019-03-21T11:05:23.191Z,7.60
2019-03-21T11:07:49.456Z,8.05
2019-03-21T11:10:15.766Z,9.40
2019-03-21T11:12:42.016Z,7.87
2019-03-21T11:15:08.678Z,10.63
2019-03-21T11:17:35.218Z,7.70
2019-03-21T11:20:01.591Z,6.28
2019-03-21T11:22:27.883Z,7.12
2019-03-21T11:24:54.262Z,7.47
2019-03-21T11:27:20.553Z,8.63
2019-03-21T11:29:46.788Z,8.38
2019-03-21T11:32:12.916Z,7.45
2019-03-21T11:34:39.139Z,6.30
2019-03-21T11:37:05.239Z,7.17
2019-03-21T11:39:31.468Z,8.50
2019-03-21T11:41:57.675Z,7.75
2019-03-21T11:44:24.029Z,7.20
2019-03-21T11:46:50.202Z,8.60
2019-03-21T11:49:16.562Z,6.65
2019-03-21T11:51:42.727Z,6.67
2019-03-21T11:54:08.981Z,5.60
2019-03-21T11:56:35.101Z,5.70
2019-03-21T11:59:01.338Z,6.08
2019-03-21T12:01:27.454Z,6.45
2019-03-21T12:03:53.692Z,5.97
2019-03-21T12:06:19.816Z,7.10
2019-03-21T12:08:46.048Z,5.67
2019-03-21T12:11:12.173Z,7.17
2019-03-21T12:13:38.386Z,7.87
2019-03-21T12:16:05.658Z,6.47
2019-03-21T12:18:31.916Z,6.22
2019-03-21T12:20:58.125Z,6.58
2019-03-21T12:23:24.387Z,4.65
2019-03-21T12:25:50.569Z,7.62
2019-03-21T12:28:16.834Z,4.80
2019-03-21T12:30:43.124Z,6.60
2019-03-21T12:33:09.488Z,6.15
2019-03-21T12:35:35.751Z,5.97
2019-03-21T12:38:04.225Z,8.85
2019-03-21T12:40:30.447Z,7.15
2019-03-21T12:42:56.574Z,6.92
2019-03-21T12:45:22.817Z,8.40
2019-03-21T12:47:48.986Z,7.33
2019-03-21T12:50:15.132Z,8.08
2019-03-21T12:52:41.813Z,8.20
2019-03-21T12:55:08.196Z,7.03
2019-03-21T12:57:34.528Z,5.55
2019-03-21T13:00:00.789Z,5.75
2019-03-21T13:02:32.275Z,6.83
2019-03-21T13:04:55.371Z,6.20
2019-03-21T13:07:21.958Z,10.98
2019-03-21T13:09:48.348Z,6.35
2019-03-21T13:12:14.571Z,5.00
2019-03-21T13:14:40.742Z,5.90
2019-03-21T13:17:07.028Z,6.97
2019-03-21T13:19:33.326Z,7.65
2019-03-21T13:21:59.503Z,8.88
2019-03-21T13:24:25.873Z,9.05
2019-03-21T13:26:52.320Z,7.72
2019-03-21T13:29:18.892Z,8.05
2019-03-21T13:31:45.112Z,6.37
2019-03-21T13:34:11.221Z,6.35
2019-03-21T13:36:37.432Z,7.90
2019-03-21T13:39:05.534Z,8.08
2019-03-21T13:41:31.851Z,9.03
2019-03-21T13:43:58.062Z,6.78
2019-03-21T13:46:24.290Z,8.05
2019-03-21T13:48:51.385Z,5.75
2019-03-21T13:51:18.629Z,8.15
2019-03-21T13:53:44.791Z,6.35
2019-03-21T13:56:11.056Z,10.15
2019-03-21T13:58:37.194Z,8.53
2019-03-21T14:01:03.534Z,9.68
2019-03-21T14:03:29.686Z,7.05
2019-03-21T14:05:55.868Z,8.05
2019-03-21T14:08:22.044Z,8.38
2019-03-21T14:10:48.205Z,10.08
2019-03-21T14:13:14.530Z,9.08
2019-03-21T14:15:40.824Z,12.45
2019-03-21T14:18:07.014Z,9.65
2019-03-21T14:20:34.255Z,8.33
2019-03-21T14:23:00.469Z,8.23
2019-03-21T14:25:27.021Z,7.00
2019-03-21T14:27:53.250Z,8.70
2019-03-21T14:30:19.372Z,9.48
2019-03-21T14:32:45.651Z,8.88
2019-03-21T14:35:12.252Z,11.03
2019-03-21T14:37:38.502Z,7.80
2019-03-21T14:40:07.275Z,11.48
2019-03-21T14:42:33.609Z,9.53
2019-03-21T14:44:59.888Z,8.98
2019-03-21T14:47:35.848Z,9.25
2019-03-21T14:49:54.385Z,8.88
2019-03-21T14:52:20.512Z,10.30
2019-03-21T14:54:46.772Z,8.73
2019-03-21T14:57:12.869Z,9.48
2019-03-21T14:59:39.200Z,7.60
2019-03-21T15:02:05.484Z,8.58
2019-03-21T15:04:32.241Z,8.03
2019-03-21T15:06:58.494Z,9.58
2019-03-21T15:09:24.832Z,8.53
2019-03-21T15:11:51.065Z,9.98
2019-03-21T15:14:18.177Z,8.65
2019-03-21T15:16:44.699Z,53.92
2019-03-21T15:19:10.919Z,18.50
2019-03-21T15:21:37.300Z,11.25
2019-03-21T15:24:03.587Z,11.70
2019-03-21T15:26:29.745Z,8.08
2019-03-21T15:28:55.986Z,8.50
2019-03-21T15:31:22.708Z,9.58
2019-03-21T15:33:48.975Z,11.83
2019-03-21T15:36:15.163Z,8.88
2019-03-21T15:38:41.390Z,12.98
2019-03-21T15:41:07.531Z,8.48
2019-03-21T15:43:33.745Z,9.53
2019-03-21T15:45:59.958Z,10.78
2019-03-21T15:48:26.384Z,9.03
2019-03-21T15:51:03.887Z,10.72
2019-03-21T15:53:21.140Z,11.50
2019-03-21T15:55:48.069Z,10.23
2019-03-21T15:58:15.021Z,11.50
2019-03-21T16:00:42.477Z,10.48
2019-03-21T16:03:10.683Z,13.95
2019-03-21T16:05:37.264Z,20.30
2019-03-21T16:08:04.636Z,18.02
2019-03-21T16:10:30.884Z,11.43
2019-03-21T16:12:57.613Z,56.45
2019-03-21T16:15:24.520Z,47.83
2019-03-21T16:17:51.216Z,27.05
2019-03-21T16:20:18.075Z,16.90
2019-03-21T16:22:44.807Z,19.15
2019-03-21T16:25:11.773Z,16.93
2019-03-21T16:27:38.145Z,12.13
2019-03-21T16:30:10.317Z,12.68
2019-03-21T16:35:05.145Z,12.00
2019-03-21T16:37:31.334Z,12.33
2019-03-21T16:39:57.676Z,12.15
2019-03-21T16:42:23.998Z,13.95
2019-03-21T16:44:50.278Z,12.18
2019-03-21T16:47:16.532Z,17.05
2019-03-21T16:49:42.794Z,13.48
2019-03-21T16:52:09.146Z,12.65
2019-03-21T16:54:35.566Z,18.82
2019-03-21T16:57:01.851Z,13.55
2019-03-21T16:59:29.344Z,19.15
2019-03-21T17:01:55.702Z,16.48
2019-03-21T17:04:21.804Z,13.70
2019-03-21T17:06:48.035Z,13.80
2019-03-21T17:09:14.216Z,12.50
2019-03-21T17:11:40.498Z,13.15
2019-03-21T17:14:07.876Z,11.18
2019-03-21T17:16:34.129Z,10.53
2019-03-21T17:19:00.271Z,11.53
2019-03-21T17:21:26.712Z,11.25
2019-03-21T17:23:52.886Z,13.38
2019-03-21T17:26:19.093Z,16.42
2019-03-21T17:28:45.319Z,14.73
2019-03-21T17:31:11.750Z,12.68
2019-03-21T17:33:37.982Z,13.90
2019-03-21T17:36:04.194Z,14.60
2019-03-21T17:38:30.419Z,15.03
2019-03-21T17:40:56.533Z,13.28
2019-03-21T17:43:22.737Z,14.15
2019-03-21T17:45:48.889Z,20.32
2019-03-21T17:48:15.131Z,18.15
2019-03-21T17:50:41.307Z,57.43
2019-03-21T17:53:07.538Z,54.40
2019-03-21T17:55:33.653Z,25.60
2019-03-21T17:58:00.071Z,24.65
2019-03-21T18:00:28.307Z,23.73
2019-03-21T18:02:54.929Z,21.05
2019-03-21T18:05:21.137Z,20.88
2019-03-21T18:07:48.454Z,23.57
2019-03-21T18:10:29.759Z,24.70
2019-03-21T18:12:56.409Z,23.52
2019-03-21T18:15:23.454Z,25.23
2019-03-21T18:17:49.637Z,19.92
2019-03-21T18:20:15.817Z,19.50
2019-03-21T18:22:42.059Z,17.98
2019-03-21T18:25:08.461Z,18.57
2019-03-21T18:27:34.641Z,19.98
2019-03-21T18:30:00.775Z,18.12
2019-03-21T18:32:27.154Z,17.82
2019-03-21T18:34:53.305Z,20.60
2019-03-21T18:37:19.498Z,20.95
2019-03-21T18:39:45.664Z,19.32
2019-03-21T18:42:11.871Z,18.40
2019-03-21T18:44:38.156Z,21.40
2019-03-21T18:47:06.272Z,25.40
2019-03-21T18:49:32.425Z,22.27
2019-03-21T18:51:58.677Z,17.75
2019-03-21T18:54:26.448Z,19.40
2019-03-21T18:56:52.777Z,19.50
2019-03-21T18:59:19.738Z,17.87
2019-03-21T19:01:57.943Z,20.35
2019-03-21T19:04:14.836Z,18.52
2019-03-21T19:06:41.303Z,18.40
2019-03-21T19:09:07.589Z,19.45
2019-03-21T19:11:33.860Z,20.97
2019-03-21T19:14:00.048Z,18.95
2019-03-21T19:16:26.409Z,18.20
2019-03-21T19:18:52.588Z,17.85
2019-03-21T19:21:18.758Z,17.20
2019-03-21T19:23:45.082Z,17.37
2019-03-21T19:26:11.198Z,17.30
2019-03-21T19:28:37.433Z,14.50
2019-03-21T19:31:03.741Z,16.00
2019-03-21T19:33:29.988Z,18.67
2019-03-21T19:35:56.104Z,16.15
2019-03-21T19:38:23.846Z,15.95
2019-03-21T19:40:50.189Z,21.82
2019-03-21T19:43:16.404Z,20.20
2019-03-21T19:45:42.517Z,18.20
2019-03-21T19:48:08.867Z,22.93
2019-03-21T19:50:34.976Z,19.17
2019-03-21T19:53:01.201Z,16.70
2019-03-21T19:55:31.123Z,15.63
2019-03-21T19:57:55.468Z,16.75
2019-03-21T20:00:22.471Z,16.02
2019-03-21T20:02:49.151Z,15.50
2019-03-21T20:05:15.805Z,17.62
2019-03-21T20:07:42.207Z,14.90
2019-03-21T20:10:10.978Z,15.83
2019-03-21T20:12:37.292Z,16.67
2019-03-21T20:15:06.520Z,16.42
2019-03-21T20:17:32.838Z,17.17
2019-03-21T20:19:59.005Z,16.00
2019-03-21T20:22:25.339Z,17.07
2019-03-21T20:24:51.551Z,17.80
2019-03-21T20:27:17.870Z,17.37
2019-03-21T20:29:44.015Z,15.53
2019-03-21T20:32:20.093Z,17.75
2019-03-21T20:34:39.589Z,15.70
2019-03-21T20:37:05.827Z,15.00
2019-03-21T20:39:31.948Z,16.52
2019-03-21T20:41:58.175Z,17.23
2019-03-21T20:44:24.302Z,19.80
2019-03-21T20:46:50.621Z,16.77
2019-03-21T20:49:16.797Z,16.32
2019-03-21T20:51:43.042Z,15.15
2019-03-21T20:54:09.260Z,20.48
2019-03-21T20:56:35.482Z,18.37
2019-03-21T20:59:01.627Z,17.77
2019-03-21T21:01:28.091Z,16.73
2019-03-21T21:03:54.270Z,16.87
2019-03-21T21:06:20.692Z,16.10
2019-03-21T21:08:47.116Z,18.00
2019-03-21T21:11:13.321Z,17.45
2019-03-21T21:13:39.474Z,17.20
2019-03-21T21:16:05.938Z,16.52
2019-03-21T21:18:32.240Z,17.57
2019-03-21T21:20:59.690Z,34.60
2019-03-21T21:23:25.943Z,24.65
2019-03-21T21:25:52.519Z,25.48
2019-03-21T21:28:18.765Z,80.65
2019-03-21T21:30:44.990Z,100.67
2019-03-21T21:33:11.333Z,110.60
2019-03-21T21:35:37.652Z,32.58
2019-03-21T21:38:04.633Z,28.40
2019-03-21T21:40:33.225Z,40.15
2019-03-21T21:43:01.388Z,45.12
2019-03-21T21:45:27.646Z,71.65
2019-03-21T21:47:53.893Z,52.03
2019-03-21T21:50:20.131Z,26.80
2019-03-21T21:52:46.369Z,24.00
2019-03-21T21:55:13.144Z,20.50
2019-03-21T21:57:39.457Z,25.97
2019-03-21T22:00:09.153Z,33.23
2019-03-21T22:02:35.355Z,30.50
2019-03-21T22:05:05.038Z,27.32
2019-03-21T22:07:31.422Z,21.40
2019-03-21T22:09:57.656Z,22.37
2019-03-21T22:12:23.829Z,20.32
2019-03-21T22:14:50.111Z,18.35
2019-03-21T22:17:16.452Z,25.68
2019-03-21T22:19:42.573Z,20.60
2019-03-21T22:22:08.782Z,18.77
2019-03-21T22:24:34.884Z,21.95
2019-03-21T22:27:01.101Z,19.57
2019-03-21T22:29:27.383Z,21.62
2019-03-21T22:31:53.608Z,23.02
2019-03-21T22:34:19.772Z,19.90
2019-03-21T22:36:49.498Z,20.65
2019-03-21T22:39:14.145Z,21.23
2019-03-21T22:41:40.465Z,22.60
2019-03-21T22:44:06.574Z,19.12
2019-03-21T22:46:32.802Z,22.42
2019-03-21T22:48:59.055Z,21.57
2019-03-21T22:51:25.342Z,22.70
2019-03-21T22:53:51.568Z,21.42
2019-03-21T22:56:17.697Z,21.82
2019-03-21T22:58:43.946Z,19.48
2019-03-21T23:01:10.102Z,17.05
2019-03-21T23:03:36.373Z,20.82
2019-03-21T23:06:02.719Z,20.57
2019-03-21T23:08:28.930Z,19.65
2019-03-21T23:10:55.163Z,23.70
2019-03-21T23:13:21.364Z,24.47
2019-03-21T23:15:47.639Z,23.80
2019-03-21T23:18:13.904Z,21.15
2019-03-21T23:20:40.004Z,22.15
2019-03-21T23:23:06.236Z,21.15
2019-03-21T23:25:32.429Z,23.42
2019-03-21T23:27:58.924Z,20.43
2019-03-21T23:30:25.298Z,18.82
2019-03-21T23:32:51.619Z,20.25
2019-03-21T23:35:17.759Z,20.60
2019-03-21T23:37:43.993Z,20.12
2019-03-21T23:40:13.415Z,20.90
2019-03-21T23:42:39.580Z,20.20
2019-03-21T23:45:07.343Z,22.32
2019-03-21T23:47:33.671Z,24.87
2019-03-21T23:50:01.238Z,22.70
2019-03-21T23:52:27.643Z,21.55
2019-03-21T23:54:53.744Z,22.22
2019-03-21T23:57:19.978Z,23.52
2019-03-21T23:59:46.163Z,23.38
